N39TU KRED-KENV

Flight info

Callsign N39TU
Flight time 1h 23m
Altitude 34000
Route HOLTR MOJVL
Aircraft STAR/L-SDFGRWY/S

Departure

Time 2026-04-28 03:14
Airport Red Lodge Airport (KRED)

Arrival

Time 2026-04-28 04:37
Airport Wendover Airport (KENV)
Time Latitude Longitude Altitude Speed Heading
2026-04-28 02:44 45.18658 -109.25344 5922 ft 0 kts 30°
2026-04-28 03:01 45.18659 -109.25344 5921 ft 0 kts 30°
2026-04-28 03:07 45.18686 -109.25333 5916 ft 3 kts 300°
2026-04-28 03:07 45.18690 -109.25340 5916 ft 6 kts 321°
2026-04-28 03:07 45.18702 -109.25329 5915 ft 0 kts 102°
2026-04-28 03:08 45.18683 -109.25323 5916 ft 3 kts 193°
2026-04-28 03:08 45.18667 -109.25332 5915 ft 7 kts 211°
2026-04-28 03:08 45.18646 -109.25370 5922 ft 0 kts 239°
2026-04-28 03:08 45.18638 -109.25385 5923 ft 8 kts 235°
2026-04-28 03:09 45.18615 -109.25495 5925 ft 11 kts 264°
2026-04-28 03:09 45.18611 -109.25575 5929 ft 5 kts 266°
2026-04-28 03:09 45.18609 -109.25628 5931 ft 6 kts 269°
2026-04-28 03:09 45.18609 -109.25692 5929 ft 9 kts 269°
2026-04-28 03:10 45.18603 -109.25759 5932 ft 3 kts 239°
2026-04-28 03:10 45.18565 -109.25775 5936 ft 11 kts 180°
2026-04-28 03:10 45.18505 -109.25772 5936 ft 7 kts 178°
2026-04-28 03:10 45.18446 -109.25769 5934 ft 12 kts 178°
2026-04-28 03:11 45.18373 -109.25763 5943 ft 9 kts 177°
2026-04-28 03:11 45.18258 -109.25757 5939 ft 23 kts 178°
2026-04-28 03:11 45.18080 -109.25747 5951 ft 22 kts 178°
2026-04-28 03:11 45.17986 -109.25728 5955 ft 5 kts 156°
2026-04-28 03:12 45.17964 -109.25720 5953 ft 5 kts 210°
2026-04-28 03:12 45.17976 -109.25744 5953 ft 5 kts
2026-04-28 03:12 45.17997 -109.25742 5954 ft 0 kts 358°
2026-04-28 03:13 45.18158 -109.25752 5945 ft 49 kts 357°
2026-04-28 03:13 45.18678 -109.25786 5933 ft 102 kts 357°
2026-04-28 03:13 45.19528 -109.25821 6132 ft 137 kts
2026-04-28 03:14 45.20532 -109.25737 6771 ft 145 kts 14°
2026-04-28 03:14 45.21330 -109.24932 7514 ft 146 kts 58°
2026-04-28 03:14 45.21442 -109.23473 8078 ft 162 kts 109°
2026-04-28 03:14 45.20633 -109.22384 8738 ft 170 kts 165°
2026-04-28 03:15 45.19513 -109.22784 9428 ft 176 kts 224°
2026-04-28 03:15 45.18647 -109.23654 10777 ft 135 kts 207°
2026-04-28 03:15 45.17694 -109.24235 11301 ft 157 kts 204°
2026-04-28 03:15 45.16682 -109.24681 12147 ft 156 kts 200°
2026-04-28 03:16 45.15654 -109.25444 12632 ft 172 kts 217°
2026-04-28 03:16 45.14709 -109.26484 13369 ft 176 kts 230°
2026-04-28 03:16 45.13919 -109.27848 14024 ft 182 kts 234°
2026-04-28 03:16 45.12922 -109.28859 14883 ft 176 kts 209°
2026-04-28 03:17 45.12211 -109.29427 15289 ft 179 kts 218°
2026-04-28 03:17 45.10100 -109.31496 16575 ft 187 kts 220°
2026-04-28 03:17 45.09035 -109.32570 17210 ft 188 kts 221°
2026-04-28 03:18 45.07978 -109.33648 17952 ft 187 kts 221°
2026-04-28 03:18 45.06915 -109.34706 18666 ft 187 kts 221°
2026-04-28 03:18 45.05847 -109.35768 19236 ft 189 kts 221°
2026-04-28 03:18 45.04724 -109.36766 19842 ft 193 kts 215°
2026-04-28 03:19 45.03528 -109.37650 20447 ft 195 kts 214°
2026-04-28 03:19 45.02343 -109.38587 21075 ft 196 kts 216°
2026-04-28 03:19 45.01154 -109.39557 21691 ft 199 kts 215°
2026-04-28 03:19 44.99938 -109.40505 22302 ft 201 kts 214°
2026-04-28 03:20 44.98715 -109.41469 22895 ft 202 kts 215°
2026-04-28 03:20 44.97482 -109.42451 23490 ft 204 kts 215°
2026-04-28 03:20 44.96270 -109.43407 24202 ft 196 kts 214°
2026-04-28 03:20 44.95079 -109.44346 24752 ft 196 kts 215°
2026-04-28 03:21 44.93888 -109.45291 25271 ft 197 kts 214°
2026-04-28 03:21 44.92688 -109.46238 25818 ft 198 kts 214°
2026-04-28 03:21 44.91480 -109.47189 26345 ft 200 kts 214°
2026-04-28 03:21 44.90263 -109.48148 26870 ft 201 kts 214°
2026-04-28 03:22 44.89055 -109.49102 27366 ft 202 kts 214°
2026-04-28 03:22 44.87821 -109.50075 27893 ft 204 kts 214°
2026-04-28 03:22 44.86582 -109.51050 28440 ft 204 kts 214°
2026-04-28 03:22 44.85338 -109.52027 28919 ft 205 kts 214°
2026-04-28 03:23 44.84088 -109.53014 29368 ft 207 kts 214°
2026-04-28 03:23 44.82826 -109.54005 29811 ft 208 kts 213°
2026-04-28 03:23 44.81553 -109.55005 30256 ft 210 kts 213°
2026-04-28 03:23 44.80269 -109.56014 30597 ft 213 kts 213°
2026-04-28 03:24 44.78968 -109.57035 30915 ft 215 kts 213°
2026-04-28 03:24 44.77653 -109.58069 31244 ft 218 kts 213°
2026-04-28 03:24 44.76320 -109.59111 31574 ft 220 kts 213°
2026-04-28 03:24 44.74975 -109.60168 31887 ft 223 kts 213°
2026-04-28 03:25 44.73618 -109.61232 32168 ft 225 kts 213°
2026-04-28 03:25 44.72243 -109.62306 32459 ft 227 kts 213°
2026-04-28 03:25 44.70859 -109.63390 32725 ft 229 kts 213°
2026-04-28 03:25 44.69460 -109.64485 32988 ft 231 kts 213°
2026-04-28 03:26 44.68051 -109.65586 33218 ft 234 kts 213°
2026-04-28 03:26 44.66616 -109.66708 33420 ft 237 kts 213°
2026-04-28 03:26 44.65169 -109.67836 33635 ft 239 kts 213°
2026-04-28 03:26 44.63713 -109.68972 33850 ft 240 kts 213°
2026-04-28 03:27 44.62246 -109.70118 33978 ft 244 kts 213°
2026-04-28 03:27 44.60747 -109.71286 34037 ft 249 kts 213°
2026-04-28 03:27 44.59213 -109.72483 34070 ft 255 kts 213°
2026-04-28 03:27 44.57643 -109.73702 34080 ft 261 kts 213°
2026-04-28 03:28 44.56042 -109.74947 34085 ft 265 kts 213°
2026-04-28 03:28 44.54418 -109.76212 34085 ft 269 kts 213°
2026-04-28 03:28 44.52773 -109.77489 34088 ft 272 kts 213°
2026-04-28 03:28 44.51109 -109.78782 34078 ft 275 kts 213°
2026-04-28 03:29 44.49430 -109.80084 34096 ft 277 kts 213°
2026-04-28 03:29 44.47741 -109.81395 34085 ft 278 kts 213°
2026-04-28 03:29 44.46043 -109.82710 34084 ft 279 kts 213°
2026-04-28 03:29 44.44340 -109.84029 34083 ft 280 kts 212°
2026-04-28 03:30 44.42633 -109.85350 34088 ft 281 kts 212°
2026-04-28 03:30 44.40946 -109.86653 34076 ft 281 kts 213°
2026-04-28 03:30 44.39238 -109.87974 34078 ft 280 kts 213°
2026-04-28 03:30 44.37531 -109.89294 34083 ft 281 kts 213°
2026-04-28 03:31 44.35823 -109.90613 34087 ft 281 kts 213°
2026-04-28 03:31 44.34112 -109.91932 34093 ft 281 kts 213°
2026-04-28 03:31 44.32395 -109.93255 34092 ft 282 kts 213°
2026-04-28 03:31 44.30674 -109.94582 34093 ft 283 kts 213°
2026-04-28 03:32 44.28952 -109.95907 34094 ft 283 kts 213°
2026-04-28 03:32 44.27225 -109.97235 34089 ft 284 kts 213°
2026-04-28 03:32 44.25495 -109.98566 34090 ft 284 kts 213°
2026-04-28 03:32 44.23763 -109.99896 34095 ft 284 kts 213°
2026-04-28 03:33 44.22031 -110.01225 34092 ft 284 kts 213°
2026-04-28 03:33 44.20299 -110.02555 34093 ft 284 kts 213°
2026-04-28 03:33 44.18563 -110.03885 34098 ft 285 kts 213°
2026-04-28 03:33 44.16830 -110.05214 34085 ft 284 kts 212°
2026-04-28 03:34 44.15096 -110.06540 34094 ft 285 kts 213°
2026-04-28 03:34 44.13360 -110.07867 34099 ft 285 kts 213°
2026-04-28 03:34 44.11625 -110.09196 34101 ft 284 kts 213°
2026-04-28 03:34 44.09891 -110.10521 34094 ft 284 kts 213°
2026-04-28 03:35 44.08156 -110.11844 34092 ft 284 kts 213°
2026-04-28 03:35 44.06423 -110.13168 34096 ft 284 kts 213°
2026-04-28 03:35 44.04692 -110.14486 34096 ft 284 kts 213°
2026-04-28 03:35 44.02983 -110.15789 34099 ft 284 kts 213°
2026-04-28 03:36 44.01251 -110.17109 34095 ft 284 kts 213°
2026-04-28 03:36 43.99518 -110.18427 34085 ft 284 kts 213°
2026-04-28 03:36 43.97787 -110.19743 34085 ft 284 kts 213°
2026-04-28 03:36 43.96059 -110.21057 34084 ft 283 kts 213°
2026-04-28 03:37 43.94334 -110.22368 34071 ft 282 kts 212°
2026-04-28 03:37 43.92614 -110.23672 34080 ft 281 kts 212°
2026-04-28 03:37 43.90899 -110.24972 34084 ft 281 kts 212°
2026-04-28 03:37 43.89183 -110.26274 34084 ft 281 kts 212°
2026-04-28 03:38 43.87469 -110.27571 34084 ft 281 kts 213°
2026-04-28 03:38 43.85751 -110.28874 34076 ft 282 kts 213°
2026-04-28 03:38 43.84030 -110.30175 34076 ft 282 kts 213°
2026-04-28 03:38 43.82308 -110.31475 34076 ft 282 kts 213°
2026-04-28 03:39 43.80588 -110.32776 34075 ft 282 kts 213°
2026-04-28 03:39 43.78867 -110.34075 34075 ft 282 kts 213°
2026-04-28 03:39 43.77143 -110.35375 34072 ft 282 kts 213°
2026-04-28 03:39 43.75422 -110.36673 34069 ft 282 kts 213°
2026-04-28 03:40 43.73701 -110.37970 34067 ft 281 kts 213°
2026-04-28 03:40 43.71984 -110.39262 34054 ft 281 kts 213°
2026-04-28 03:40 43.70265 -110.40557 34062 ft 281 kts 213°
2026-04-28 03:40 43.68545 -110.41850 34066 ft 282 kts 212°
2026-04-28 03:41 43.66823 -110.43143 34065 ft 282 kts 212°
2026-04-28 03:41 43.65102 -110.44436 34066 ft 282 kts 212°
2026-04-28 03:41 43.63378 -110.45729 34066 ft 282 kts 212°
2026-04-28 03:41 43.61677 -110.47005 34064 ft 283 kts 213°
2026-04-28 03:42 43.59950 -110.48301 34064 ft 283 kts 213°
2026-04-28 03:42 43.58223 -110.49593 34060 ft 282 kts 212°
2026-04-28 03:42 43.56497 -110.50886 34059 ft 282 kts 213°
2026-04-28 03:42 43.54769 -110.52178 34059 ft 282 kts 213°
2026-04-28 03:43 43.53039 -110.53471 34060 ft 283 kts 212°
2026-04-28 03:43 43.51307 -110.54766 34058 ft 283 kts 212°
2026-04-28 03:43 43.49574 -110.56058 34039 ft 283 kts 213°
2026-04-28 03:43 43.47847 -110.57347 34047 ft 282 kts 213°
2026-04-28 03:44 43.46121 -110.58634 34050 ft 282 kts 213°
2026-04-28 03:44 43.44395 -110.59921 34052 ft 282 kts 213°
2026-04-28 03:44 43.42673 -110.61203 34054 ft 281 kts 213°
2026-04-28 03:44 43.40949 -110.62485 34048 ft 282 kts 213°
2026-04-28 03:45 43.39218 -110.63772 34046 ft 282 kts 213°
2026-04-28 03:45 43.37493 -110.65055 34045 ft 282 kts 212°
2026-04-28 03:45 43.35766 -110.66335 34043 ft 282 kts 213°
2026-04-28 03:45 43.34035 -110.67624 34043 ft 283 kts 213°
2026-04-28 03:46 43.32301 -110.68907 34043 ft 283 kts 212°
2026-04-28 03:46 43.30566 -110.70193 34038 ft 283 kts 212°
2026-04-28 03:46 43.28831 -110.71479 34040 ft 283 kts 212°
2026-04-28 03:46 43.27097 -110.72762 34028 ft 283 kts 212°
2026-04-28 03:47 43.25365 -110.74045 34034 ft 283 kts 212°
2026-04-28 03:47 43.23632 -110.75325 34035 ft 283 kts 212°
2026-04-28 03:47 43.21897 -110.76606 34028 ft 283 kts 212°
2026-04-28 03:47 43.20163 -110.77888 34029 ft 283 kts 212°
2026-04-28 03:48 43.18435 -110.79162 34032 ft 282 kts 212°
2026-04-28 03:48 43.16704 -110.80437 34030 ft 282 kts 212°
2026-04-28 03:48 43.14979 -110.81709 34029 ft 281 kts 212°
2026-04-28 03:48 43.13257 -110.82978 34024 ft 281 kts 212°
2026-04-28 03:49 43.11534 -110.84246 34025 ft 281 kts 212°
2026-04-28 03:49 43.09806 -110.85516 34024 ft 282 kts 212°
2026-04-28 03:49 43.08081 -110.86784 34024 ft 282 kts 212°
2026-04-28 03:49 43.06355 -110.88053 34020 ft 282 kts 212°
2026-04-28 03:50 43.04628 -110.89320 34007 ft 281 kts 212°
2026-04-28 03:50 43.02904 -110.90585 34009 ft 281 kts 212°
2026-04-28 03:50 43.01180 -110.91845 34016 ft 281 kts 212°
2026-04-28 03:50 42.99459 -110.93110 34018 ft 282 kts 212°
2026-04-28 03:51 42.97750 -110.94361 34022 ft 283 kts 212°
2026-04-28 03:51 42.96017 -110.95626 34019 ft 283 kts 212°
2026-04-28 03:51 42.94280 -110.96898 34017 ft 283 kts 212°
2026-04-28 03:51 42.92541 -110.98169 34019 ft 283 kts 212°
2026-04-28 03:52 42.90805 -110.99436 34017 ft 283 kts 212°
2026-04-28 03:52 42.89068 -111.00704 34021 ft 283 kts 212°
2026-04-28 03:52 42.87332 -111.01970 34022 ft 283 kts 212°
2026-04-28 03:52 42.85596 -111.03235 34022 ft 283 kts 212°
2026-04-28 03:53 42.83863 -111.04498 34023 ft 283 kts 212°
2026-04-28 03:53 42.82130 -111.05758 34024 ft 283 kts 212°
2026-04-28 03:53 42.80395 -111.07022 34024 ft 283 kts 212°
2026-04-28 03:53 42.78658 -111.08285 34024 ft 283 kts 212°
2026-04-28 03:54 42.76924 -111.09544 34023 ft 282 kts 212°
2026-04-28 03:54 42.75189 -111.10804 34024 ft 282 kts 212°
2026-04-28 03:54 42.73458 -111.12060 34022 ft 282 kts 212°
2026-04-28 03:54 42.71729 -111.13313 34023 ft 282 kts 212°
2026-04-28 03:55 42.70000 -111.14567 34018 ft 282 kts 212°
2026-04-28 03:55 42.68271 -111.15817 34016 ft 282 kts 212°
2026-04-28 03:55 42.66539 -111.17074 34016 ft 283 kts 212°
2026-04-28 03:55 42.64801 -111.18330 34015 ft 283 kts 212°
2026-04-28 03:56 42.63064 -111.19584 34016 ft 284 kts 212°
2026-04-28 03:56 42.61320 -111.20846 34013 ft 284 kts 212°
2026-04-28 03:56 42.59572 -111.22107 33997 ft 284 kts 212°
2026-04-28 03:56 42.57825 -111.23365 34000 ft 284 kts 212°
2026-04-28 03:57 42.56078 -111.24627 34001 ft 285 kts 212°
2026-04-28 03:57 42.54325 -111.25890 33998 ft 285 kts 212°
2026-04-28 03:57 42.52572 -111.27150 33996 ft 285 kts 212°
2026-04-28 03:57 42.50826 -111.28407 33991 ft 284 kts 212°
2026-04-28 03:58 42.49079 -111.29667 33989 ft 285 kts 212°
2026-04-28 03:58 42.47326 -111.30924 33986 ft 285 kts 212°
2026-04-28 03:58 42.45571 -111.32184 33985 ft 286 kts 212°
2026-04-28 03:58 42.43817 -111.33445 33985 ft 286 kts 212°
2026-04-28 03:59 42.42058 -111.34705 33985 ft 286 kts 212°
2026-04-28 03:59 42.40298 -111.35967 33985 ft 287 kts 212°
2026-04-28 03:59 42.38535 -111.37230 33984 ft 287 kts 212°
2026-04-28 03:59 42.36771 -111.38493 33977 ft 287 kts 212°
2026-04-28 04:00 42.35006 -111.39756 33980 ft 287 kts 212°
2026-04-28 04:00 42.33241 -111.41017 33983 ft 287 kts 212°
2026-04-28 04:00 42.31475 -111.42280 33983 ft 288 kts 212°
2026-04-28 04:00 42.29808 -111.43727 33983 ft 283 kts 224°
2026-04-28 04:01 42.28514 -111.45696 33983 ft 280 kts 235°
2026-04-28 04:01 42.27357 -111.47807 33983 ft 280 kts 234°
2026-04-28 04:01 42.26108 -111.49833 33983 ft 281 kts 232°
2026-04-28 04:01 42.24899 -111.51855 33982 ft 281 kts 234°
2026-04-28 04:02 42.23681 -111.53913 33983 ft 281 kts 233°
2026-04-28 04:02 42.22442 -111.55954 33982 ft 281 kts 233°
2026-04-28 04:02 42.21199 -111.58037 33984 ft 282 kts 233°
2026-04-28 04:02 42.19981 -111.60067 33982 ft 282 kts 233°
2026-04-28 04:03 42.18729 -111.62145 33983 ft 282 kts 233°
2026-04-28 04:03 42.17510 -111.64176 33981 ft 282 kts 233°
2026-04-28 04:03 42.16273 -111.66232 33982 ft 282 kts 233°
2026-04-28 04:03 42.15039 -111.68283 33982 ft 282 kts 233°
2026-04-28 04:04 42.13803 -111.70333 33981 ft 282 kts 233°
2026-04-28 04:04 42.12568 -111.72383 33986 ft 282 kts 233°
2026-04-28 04:04 42.11331 -111.74432 33979 ft 282 kts 233°
2026-04-28 04:04 42.10096 -111.76477 33989 ft 282 kts 234°
2026-04-28 04:05 42.08861 -111.78525 33996 ft 282 kts 233°
2026-04-28 04:05 42.07624 -111.80571 33994 ft 282 kts 233°
2026-04-28 04:05 42.06383 -111.82621 34003 ft 283 kts 233°
2026-04-28 04:05 42.05141 -111.84673 34007 ft 283 kts 233°
2026-04-28 04:06 42.03899 -111.86725 34010 ft 283 kts 233°
2026-04-28 04:06 42.02657 -111.88774 34012 ft 283 kts 233°
2026-04-28 04:06 42.01414 -111.90823 34015 ft 283 kts 233°
2026-04-28 04:06 42.00169 -111.92874 34017 ft 283 kts 233°
2026-04-28 04:07 41.98924 -111.94924 34015 ft 283 kts 233°
2026-04-28 04:07 41.98099 -111.96282 34017 ft 283 kts 233°
2026-04-28 04:07 41.96855 -111.98328 34017 ft 283 kts 233°
2026-04-28 04:07 41.95609 -112.00376 34019 ft 283 kts 233°
2026-04-28 04:08 41.94363 -112.02422 34019 ft 283 kts 233°
2026-04-28 04:08 41.93116 -112.04468 34019 ft 283 kts 233°
2026-04-28 04:08 41.91871 -112.06512 34017 ft 283 kts 233°
2026-04-28 04:08 41.90624 -112.08553 34016 ft 283 kts 233°
2026-04-28 04:09 41.89379 -112.10594 34015 ft 283 kts 233°
2026-04-28 04:09 41.88132 -112.12636 34016 ft 283 kts 233°
2026-04-28 04:09 41.86882 -112.14677 34009 ft 283 kts 233°
2026-04-28 04:09 41.85633 -112.16722 34009 ft 283 kts 233°
2026-04-28 04:10 41.84382 -112.18766 34004 ft 284 kts 233°
2026-04-28 04:10 41.83130 -112.20808 34005 ft 283 kts 233°
2026-04-28 04:10 41.81879 -112.22848 33994 ft 283 kts 233°
2026-04-28 04:10 41.80631 -112.24885 34005 ft 283 kts 233°
2026-04-28 04:11 41.79381 -112.26921 34009 ft 283 kts 233°
2026-04-28 04:11 41.78127 -112.28961 34010 ft 284 kts 233°
2026-04-28 04:11 41.76872 -112.31003 34011 ft 284 kts 233°
2026-04-28 04:11 41.75617 -112.33043 34015 ft 284 kts 233°
2026-04-28 04:12 41.74361 -112.35086 34015 ft 284 kts 233°
2026-04-28 04:12 41.73103 -112.37125 34013 ft 284 kts 233°
2026-04-28 04:12 41.71846 -112.39165 34012 ft 284 kts 233°
2026-04-28 04:12 41.70587 -112.41207 34010 ft 284 kts 233°
2026-04-28 04:13 41.69327 -112.43250 34008 ft 285 kts 233°
2026-04-28 04:13 41.68063 -112.45294 34004 ft 285 kts 233°
2026-04-28 04:13 41.66801 -112.47335 33999 ft 285 kts 234°
2026-04-28 04:13 41.65541 -112.49376 33998 ft 285 kts 234°
2026-04-28 04:14 41.64277 -112.51416 33995 ft 285 kts 233°
2026-04-28 04:14 41.63014 -112.53457 33995 ft 285 kts 233°
2026-04-28 04:14 41.61747 -112.55500 33996 ft 285 kts 233°
2026-04-28 04:14 41.60482 -112.57540 33996 ft 285 kts 233°
2026-04-28 04:15 41.59232 -112.59554 33997 ft 286 kts 233°
2026-04-28 04:15 41.57947 -112.61624 33996 ft 286 kts 233°
2026-04-28 04:15 41.55424 -112.65682 33996 ft 286 kts 233°
2026-04-28 04:16 41.54152 -112.67727 33996 ft 286 kts 233°
2026-04-28 04:16 41.52880 -112.69770 33984 ft 286 kts 234°
2026-04-28 04:16 41.51608 -112.71810 33990 ft 286 kts 234°
2026-04-28 04:16 41.50338 -112.73849 33993 ft 286 kts 233°
2026-04-28 04:17 41.49065 -112.75889 33995 ft 286 kts 233°
2026-04-28 04:17 41.47791 -112.77929 33995 ft 286 kts 233°
2026-04-28 04:17 41.46517 -112.79963 33989 ft 286 kts 234°
2026-04-28 04:17 41.45247 -112.82003 33993 ft 286 kts 234°
2026-04-28 04:18 41.43963 -112.84056 33836 ft 291 kts 234°
2026-04-28 04:18 41.42667 -112.86120 33713 ft 290 kts 234°
2026-04-28 04:18 41.41377 -112.88182 33536 ft 290 kts 234°
2026-04-28 04:18 41.40081 -112.90251 33354 ft 291 kts 234°
2026-04-28 04:19 41.38786 -112.92311 33202 ft 289 kts 234°
2026-04-28 04:19 41.37479 -112.94399 32642 ft 297 kts 234°
2026-04-28 04:19 41.36140 -112.96529 32088 ft 303 kts 234°
2026-04-28 04:19 41.34777 -112.98694 31548 ft 307 kts 234°
2026-04-28 04:20 41.33403 -113.00880 31014 ft 308 kts 233°
2026-04-28 04:20 41.32026 -113.03066 30504 ft 308 kts 233°
2026-04-28 04:20 41.30649 -113.05252 29983 ft 308 kts 233°
2026-04-28 04:20 41.29279 -113.07426 29375 ft 306 kts 233°
2026-04-28 04:21 41.27912 -113.09592 28776 ft 305 kts 233°
2026-04-28 04:21 41.26555 -113.11740 28191 ft 303 kts 233°
2026-04-28 04:21 41.25201 -113.13884 27617 ft 302 kts 233°
2026-04-28 04:21 41.23853 -113.16018 27064 ft 301 kts 233°
2026-04-28 04:22 41.22510 -113.18139 26501 ft 299 kts 233°
2026-04-28 04:22 41.21177 -113.20245 25963 ft 297 kts 233°
2026-04-28 04:22 41.19853 -113.22335 25384 ft 294 kts 233°
2026-04-28 04:22 41.18542 -113.24401 24820 ft 291 kts 233°
2026-04-28 04:23 41.17241 -113.26453 24272 ft 289 kts 232°
2026-04-28 04:23 41.15953 -113.28480 23729 ft 286 kts 232°
2026-04-28 04:23 41.14673 -113.30495 23114 ft 284 kts 232°
2026-04-28 04:23 41.13402 -113.32494 22478 ft 282 kts 232°
2026-04-28 04:24 41.12142 -113.34476 21857 ft 281 kts 233°
2026-04-28 04:24 41.10903 -113.36422 21260 ft 279 kts 233°
2026-04-28 04:24 41.09654 -113.38382 20657 ft 277 kts 233°
2026-04-28 04:24 41.08414 -113.40330 20104 ft 276 kts 233°
2026-04-28 04:25 41.07182 -113.42257 19604 ft 273 kts 233°
2026-04-28 04:25 41.05963 -113.44169 19109 ft 270 kts 233°
2026-04-28 04:25 41.04752 -113.46068 18627 ft 269 kts 233°
2026-04-28 04:25 41.03546 -113.47953 18135 ft 268 kts 233°
2026-04-28 04:26 41.02347 -113.49832 17583 ft 267 kts 233°
2026-04-28 04:26 41.01147 -113.51707 17046 ft 267 kts 233°
2026-04-28 04:26 40.99948 -113.53580 16517 ft 267 kts 233°
2026-04-28 04:26 40.98746 -113.55456 15997 ft 267 kts 233°
2026-04-28 04:27 40.97542 -113.57334 15485 ft 268 kts 232°
2026-04-28 04:27 40.96334 -113.59217 14985 ft 269 kts 232°
2026-04-28 04:27 40.95123 -113.61104 14489 ft 269 kts 232°
2026-04-28 04:27 40.93909 -113.62995 14000 ft 270 kts 232°
2026-04-28 04:28 40.92688 -113.64893 13483 ft 272 kts 232°
2026-04-28 04:28 40.91462 -113.66800 12934 ft 273 kts 232°
2026-04-28 04:28 40.90232 -113.68714 12419 ft 273 kts 232°
2026-04-28 04:28 40.89002 -113.70623 11902 ft 272 kts 232°
2026-04-28 04:29 40.87777 -113.72525 11391 ft 271 kts 232°
2026-04-28 04:29 40.86557 -113.74419 10912 ft 270 kts 232°
2026-04-28 04:29 40.85338 -113.76306 10453 ft 270 kts 232°
2026-04-28 04:29 40.84150 -113.78149 10200 ft 263 kts 232°
2026-04-28 04:30 40.82966 -113.79983 10069 ft 255 kts 232°
2026-04-28 04:30 40.81850 -113.81709 10008 ft 247 kts 232°
2026-04-28 04:30 40.80751 -113.83408 9989 ft 239 kts 232°
2026-04-28 04:30 40.79688 -113.85052 9975 ft 232 kts 232°
2026-04-28 04:31 40.78655 -113.86648 9967 ft 225 kts 232°
2026-04-28 04:31 40.77647 -113.88202 9809 ft 224 kts 231°
2026-04-28 04:31 40.76549 -113.89710 9111 ft 232 kts 226°
2026-04-28 04:31 40.75360 -113.91160 8576 ft 231 kts 224°
2026-04-28 04:32 40.74228 -113.92580 8313 ft 214 kts 233°
2026-04-28 04:32 40.73696 -113.94219 8418 ft 183 kts 267°
2026-04-28 04:32 40.73822 -113.95822 8321 ft 168 kts 282°
2026-04-28 04:32 40.73982 -113.97297 8252 ft 158 kts 279°
2026-04-28 04:33 40.74111 -113.98718 8155 ft 158 kts 279°
2026-04-28 04:33 40.74117 -114.00190 8072 ft 164 kts 268°
2026-04-28 04:33 40.74048 -114.01747 7840 ft 177 kts 269°
2026-04-28 04:33 40.73993 -114.03396 7546 ft 180 kts 270°
2026-04-28 04:34 40.73965 -114.04995 7177 ft 163 kts 271°
2026-04-28 04:34 40.73976 -114.06416 7002 ft 147 kts 273°
2026-04-28 04:34 40.74031 -114.07701 6883 ft 138 kts 275°
2026-04-28 04:34 40.74133 -114.08997 6931 ft 141 kts 273°
2026-04-28 04:35 40.73801 -114.10128 6909 ft 130 kts 220°
2026-04-28 04:35 40.72988 -114.10431 6567 ft 121 kts 175°
2026-04-28 04:35 40.72231 -114.09969 6112 ft 123 kts 140°
2026-04-28 04:35 40.71797 -114.09022 5718 ft 124 kts 99°
2026-04-28 04:36 40.71924 -114.07888 5375 ft 124 kts 89°
2026-04-28 04:36 40.71917 -114.06776 5055 ft 119 kts 93°
2026-04-28 04:36 40.71907 -114.05698 4696 ft 116 kts 93°
2026-04-28 04:36 40.71904 -114.04657 4368 ft 111 kts 91°
2026-04-28 04:37 40.71894 -114.03695 4236 ft 96 kts 90°
2026-04-28 04:37 40.71893 -114.03115 4228 ft 26 kts 89°
2026-04-28 04:37 40.71894 -114.02944 4229 ft 15 kts 90°
2026-04-28 04:37 40.71895 -114.02751 4229 ft 27 kts 89°
2026-04-28 04:38 40.71897 -114.02578 4235 ft 7 kts 75°
2026-04-28 04:38 40.71910 -114.02510 4235 ft 5 kts 68°
2026-04-28 04:38 40.71951 -114.02473 4235 ft 14 kts 356°
2026-04-28 04:38 40.71997 -114.02504 4234 ft 5 kts 282°
2026-04-28 04:39 40.72001 -114.02560 4233 ft 6 kts 275°
2026-04-28 04:39 40.72002 -114.02570 4232 ft 0 kts 271°